Aviation Digital Data Service (ADDS)

Output produced by METARs form (0617 UTC 16 December 2018)
found at http://aviationweather.gov/metar/data/
 
ELLX 160550Z 18005KT 150V210 1200 R24/P2000N -SG OVC001 M02/M03 Q1010 R99/29//59 NOSIG
ELLX 160520Z 15003KT 130V190 1300 R24/P2000N -SG OVC001 M02/M03 Q1010 R24/29//59 NOSIG
TAF ELLX 160500Z 1606/1712 20005KT 2000 BR OVC002 
     PROB40 
     TEMPO 1606/1610 SG -FZRA 
     BECMG 1610/1612 9999 BKN012 
     TEMPO 1706/1712 -RA